Terminal Aerodrome Forecast
Issued by NWS

Home | Current Version | Previous Version | Text Only | Print | Product List | Glossary On
Versions: 1 2 3 4 5 6 7 8 9 10 11 12 13 14 15 16 17 18 19 20 21 22 23 24 25 26 27 28 29 30 31 32 33 34 35 36 37 38 39 40 41
571
FTUS44 KLIX 021135
TAFHUM
TAF
KHUM 021135Z 0212/0312 VRB03KT P6SM VCSH FEW008 SCT020
     FM021400 15008KT 6SM -SHRA VCTS BKN020CB OVC150
     FM021600 15007KT 5SM TSRA BKN035CB OVC150
     FM021900 18009KT P6SM -RA VCTS BKN040CB OVC150
     FM022100 20008KT P6SM -RA SCT045
     FM030200 20002KT 5SM BR VCSH BKN008 OVC015=

USA.gov is the U.S. government's official web portal to all federal, state and local government web resources and services.